Time;durP1;ratioP1;P1;durP2;ratioP2;P2;SDS_P1;SDS_P2;PMS_P1;PMS_P2;Temp;Humidity;BMP_temperature;BMP_pressure;BME280_temperature;BME280_humidity;BME280_pressure;Samples;Min_cycle;Max_cycle;Signal;HPM_P1;HPM_P2
2020/12/27 00:00:42;;;;;;;1.05;0.73;;;5.80;77.10;;;;;;5125099;28;20055;-43
2020/12/27 00:03:08;;;;;;;0.77;0.63;;;5.80;77.10;;;;;;5125352;28;20050;-43
2020/12/27 00:05:34;;;;;;;1.88;0.90;;;5.80;77.00;;;;;;5125043;28;20095;-44
2020/12/27 00:08:01;;;;;;;1.98;0.70;;;5.80;77.00;;;;;;5107059;28;20024;-43
2020/12/27 00:10:27;;;;;;;1.25;0.80;;;5.70;77.00;;;;;;5106813;28;20503;-42
2020/12/27 00:12:53;;;;;;;0.80;0.52;;;5.70;77.00;;;;;;5125035;28;20096;-42
2020/12/27 00:15:19;;;;;;;0.98;0.80;;;5.70;77.00;;;;;;5124979;28;20119;-43
2020/12/27 00:17:45;;;;;;;0.98;0.70;;;5.70;77.00;;;;;;5124996;28;20042;-42
2020/12/27 00:20:11;;;;;;;1.10;0.80;;;5.70;77.00;;;;;;5138123;27;20033;-43
2020/12/27 00:22:38;;;;;;;1.00;0.90;;;5.70;77.00;;;;;;5144224;27;20051;-43
2020/12/27 00:25:04;;;;;;;1.60;0.82;;;5.70;76.90;;;;;;5145312;27;20027;-43
2020/12/27 00:27:30;;;;;;;1.25;0.90;;;5.70;76.90;;;;;;5145386;27;20565;-43
2020/12/27 00:29:56;;;;;;;1.85;0.95;;;5.70;76.90;;;;;;5145368;27;20023;-43
2020/12/27 00:32:29;;;;;;;0.88;0.77;;;5.70;76.90;;;;;;5140043;27;20020;-43
2020/12/27 00:34:55;;;;;;;1.15;1.00;;;5.70;76.90;;;;;;5124648;28;20016;-43
2020/12/27 00:37:22;;;;;;;1.17;0.95;;;5.70;76.90;;;;;;5109907;28;20032;-43
2020/12/27 00:39:53;;;;;;;2.45;0.90;;;5.70;76.90;;;;;;5103981;28;20031;-42
2020/12/27 00:42:19;;;;;;;1.15;1.00;;;5.70;76.90;;;;;;5111574;28;20032;-43
2020/12/27 00:44:46;;;;;;;1.67;0.90;;;5.70;76.90;;;;;;5124447;28;20031;-43
2020/12/27 00:47:12;;;;;;;2.35;1.08;;;5.60;76.80;;;;;;5124387;28;20042;-43
2020/12/27 00:49:38;;;;;;;1.33;0.98;;;5.60;76.80;;;;;;5132683;27;20035;-43
2020/12/27 00:52:04;;;;;;;0.93;0.88;;;5.60;76.80;;;;;;5144651;27;20023;-43
2020/12/27 00:54:30;;;;;;;2.70;0.98;;;5.60;76.80;;;;;;5144858;27;20030;-43
2020/12/27 00:56:56;;;;;;;1.25;1.08;;;5.60;76.80;;;;;;5144809;27;20659;-43
2020/12/27 00:59:22;;;;;;;1.52;1.00;;;5.60;76.80;;;;;;5144707;27;20019;-43
2020/12/27 01:01:54;;;;;;;1.30;1.10;;;5.60;76.90;;;;;;5144225;27;20027;-43
2020/12/27 01:04:20;;;;;;;1.13;1.00;;;5.60;76.90;;;;;;5124070;28;20027;-42
2020/12/27 01:06:46;;;;;;;1.17;0.95;;;5.60;76.80;;;;;;5123935;28;20088;-43
2020/12/27 01:09:12;;;;;;;1.80;1.10;;;5.60;76.80;;;;;;5124066;28;20053;-43
2020/12/27 01:11:39;;;;;;;1.92;1.35;;;5.50;76.80;;;;;;5123604;28;20039;-43
2020/12/27 01:14:05;;;;;;;1.95;1.20;;;5.50;76.80;;;;;;5123846;28;20027;-43
2020/12/27 01:16:31;;;;;;;1.88;1.30;;;5.50;76.80;;;;;;5123692;28;20063;-43
2020/12/27 01:18:57;;;;;;;3.00;1.00;;;5.50;76.80;;;;;;5126354;27;20028;-43
2020/12/27 01:21:35;;;;;;;1.45;0.95;;;5.50;76.70;;;;;;5126189;27;20077;-43
2020/12/27 01:24:01;;;;;;;1.58;1.10;;;5.50;76.80;;;;;;5123703;28;20036;-43
2020/12/27 01:26:31;;;;;;;1.15;1.00;;;5.50;76.80;;;;;;5123639;28;20043;-43
2020/12/27 01:28:57;;;;;;;1.27;1.10;;;5.50;76.80;;;;;;5123677;28;20027;-43
2020/12/27 01:31:24;;;;;;;1.95;1.00;;;5.50;76.70;;;;;;5123807;28;20023;-43
2020/12/27 01:33:50;;;;;;;1.42;1.10;;;5.40;76.70;;;;;;5104524;28;20093;-42
2020/12/27 01:36:30;;;;;;;1.65;1.00;;;5.40;76.60;;;;;;5123373;28;20031;-43
2020/12/27 01:38:57;;;;;;;2.30;1.52;;;5.40;76.60;;;;;;5123528;28;20833;-43
2020/12/27 01:41:23;;;;;;;1.15;0.90;;;5.40;76.60;;;;;;5123523;28;20023;-43
2020/12/27 01:44:09;;;;;;;1.83;1.00;;;5.40;76.70;;;;;;5104844;28;20774;-43
2020/12/27 01:46:37;;;;;;;1.52;1.08;;;5.40;76.60;;;;;;5123242;28;20039;-43
2020/12/27 01:49:03;;;;;;;;;;;5.40;76.60;;;;;;5123651;28;20027;-43
2020/12/27 01:51:29;;;;;;;2.60;1.25;;;5.40;76.70;;;;;;5123502;28;20003;-43
2020/12/27 01:53:56;;;;;;;1.23;1.10;;;5.40;76.60;;;;;;5104370;28;20023;-42
2020/12/27 01:56:27;;;;;;;2.00;1.27;;;5.30;77.40;;;;;;5123104;28;20099;-43
2020/12/27 01:58:58;;;;;;;2.35;1.35;;;5.30;76.70;;;;;;5104986;28;20179;-43
2020/12/27 02:01:24;;;;;;;1.35;1.00;;;5.30;76.70;;;;;;5105671;28;20027;-43
2020/12/27 02:03:50;;;;;;;1.87;1.07;;;5.30;76.70;;;;;;5104866;28;20118;-42
2020/12/27 02:06:17;;;;;;;1.42;1.02;;;5.30;76.60;;;;;;5123088;28;20016;-43
2020/12/27 02:08:43;;;;;;;1.58;1.30;;;5.30;76.70;;;;;;5123299;28;20059;-42
2020/12/27 02:11:09;;;;;;;1.17;0.98;;;5.30;76.70;;;;;;5104756;28;20032;-43
2020/12/27 02:13:45;;;;;;;2.00;1.30;;;5.30;76.70;;;;;;5123033;28;20110;-43
2020/12/27 02:16:16;;;;;;;1.75;1.05;;;5.30;76.70;;;;;;5123093;28;20051;-43
2020/12/27 02:18:42;;;;;;;1.67;1.05;;;5.20;76.60;;;;;;5123104;28;20051;-43
2020/12/27 02:21:09;;;;;;;1.60;1.20;;;5.20;76.60;;;;;;5122770;28;20042;-43
2020/12/27 02:23:36;;;;;;;1.75;1.20;;;5.20;76.60;;;;;;5122800;28;20111;-43
2020/12/27 02:26:02;;;;;;;2.03;1.05;;;5.20;76.70;;;;;;5104697;28;20034;-43
2020/12/27 02:28:28;;;;;;;1.45;1.20;;;5.20;76.70;;;;;;5122923;28;20552;-43
2020/12/27 02:30:54;;;;;;;1.77;1.38;;;5.20;76.70;;;;;;5122921;28;20027;-43
2020/12/27 02:33:20;;;;;;;1.80;1.10;;;5.20;76.70;;;;;;5122580;28;20095;-43
2020/12/27 02:35:46;;;;;;;2.25;1.38;;;5.20;76.70;;;;;;5121404;28;20012;-43
2020/12/27 02:38:13;;;;;;;1.77;1.20;;;5.10;76.60;;;;;;5102581;28;20048;-44
2020/12/27 02:40:41;;;;;;;1.90;1.10;;;5.10;76.70;;;;;;5112633;28;20020;-43
2020/12/27 02:43:12;;;;;;;2.03;1.17;;;5.10;76.70;;;;;;5122426;28;20110;-43
2020/12/27 02:45:38;;;;;;;1.52;1.13;;;5.10;76.70;;;;;;5124474;28;20081;-43
2020/12/27 02:48:04;;;;;;;1.73;1.20;;;5.10;76.60;;;;;;5126675;28;20023;-42
2020/12/27 02:50:30;;;;;;;1.60;1.10;;;5.10;76.70;;;;;;5142270;27;20045;-43
2020/12/27 02:52:56;;;;;;;1.90;1.30;;;5.10;76.70;;;;;;5147303;27;20052;-43
2020/12/27 02:55:22;;;;;;;1.58;1.05;;;5.10;76.70;;;;;;5147054;27;20043;-43
2020/12/27 02:57:48;;;;;;;2.22;1.42;;;5.00;76.70;;;;;;5147052;27;20042;-43
2020/12/27 03:00:15;;;;;;;1.20;1.08;;;5.00;76.70;;;;;;5147207;27;20027;-43
2020/12/27 03:02:41;;;;;;;2.10;1.30;;;5.00;76.70;;;;;;5139262;27;20065;-42
2020/12/27 03:05:07;;;;;;;1.10;0.93;;;5.00;76.70;;;;;;5126088;28;20026;-44
2020/12/27 03:07:33;;;;;;;1.98;1.33;;;5.00;76.70;;;;;;5110102;28;20031;-43
2020/12/27 03:09:59;;;;;;;1.45;1.20;;;5.00;76.80;;;;;;5105946;28;20028;-43
2020/12/27 03:12:25;;;;;;;1.40;1.10;;;5.00;76.80;;;;;;5107748;28;20028;-43
2020/12/27 03:14:51;;;;;;;1.90;1.40;;;5.00;76.80;;;;;;5144476;27;20479;-43
2020/12/27 03:17:17;;;;;;;2.08;1.25;;;5.00;76.80;;;;;;5146592;27;20039;-43
2020/12/27 03:19:44;;;;;;;1.85;1.27;;;5.00;76.80;;;;;;5137511;27;20027;-42
2020/12/27 03:22:10;;;;;;;2.53;1.48;;;5.00;76.90;;;;;;5125860;28;20042;-43
2020/12/27 03:24:36;;;;;;;1.63;1.20;;;4.90;76.80;;;;;;5125914;28;20034;-42
2020/12/27 03:27:02;;;;;;;1.98;1.40;;;4.90;76.80;;;;;;5125929;28;20709;-42
2020/12/27 03:29:28;;;;;;;2.35;1.60;;;4.90;76.70;;;;;;5125761;28;20027;-41
2020/12/27 03:31:54;;;;;;;2.13;1.40;;;4.90;76.90;;;;;;5125816;28;20031;-42
2020/12/27 03:34:21;;;;;;;1.95;1.30;;;4.90;76.80;;;;;;5125602;28;20089;-44
2020/12/27 03:36:47;;;;;;;1.77;1.48;;;4.90;76.90;;;;;;5115829;28;20032;-42
2020/12/27 03:39:14;;;;;;;1.77;1.40;;;4.90;76.80;;;;;;5133261;27;20027;-42
2020/12/27 03:41:40;;;;;;;1.75;1.20;;;4.90;76.90;;;;;;5146164;27;20031;-41
2020/12/27 03:44:06;;;;;;;1.65;1.23;;;4.90;76.90;;;;;;5146076;27;20034;-42
2020/12/27 03:46:32;;;;;;;1.58;1.40;;;4.80;76.80;;;;;;5144943;27;20489;-42
2020/12/27 03:48:59;;;;;;;2.10;1.58;;;4.80;76.90;;;;;;5128397;27;20031;-41
2020/12/27 03:51:25;;;;;;;2.38;1.50;;;4.80;76.90;;;;;;5146011;27;20027;-41
2020/12/27 03:53:51;;;;;;;2.10;1.60;;;4.80;76.90;;;;;;5144484;27;20038;-41
2020/12/27 03:56:17;;;;;;;2.30;1.60;;;4.80;76.80;;;;;;5125366;28;20031;-41
2020/12/27 03:58:44;;;;;;;2.05;1.50;;;4.80;76.90;;;;;;5125348;28;20050;-41
2020/12/27 04:01:10;;;;;;;1.60;1.35;;;4.80;76.90;;;;;;5125267;28;20020;-41
2020/12/27 04:03:36;;;;;;;2.50;1.60;;;4.80;76.90;;;;;;5125000;28;20507;-42
2020/12/27 04:06:02;;;;;;;2.03;1.52;;;4.80;76.90;;;;;;5121643;28;20031;-42
2020/12/27 04:08:29;;;;;;;2.30;1.40;;;4.80;76.90;;;;;;5104884;28;20107;-42
2020/12/27 04:10:55;;;;;;;;;;;4.70;76.90;;;;;;5105035;28;20028;-46
2020/12/27 04:13:22;;;;;;;2.90;1.60;;;4.70;76.90;;;;;;5104425;28;19943;-41
2020/12/27 04:15:48;;;;;;;3.20;1.55;;;4.70;76.90;;;;;;5086562;28;20040;-42
2020/12/27 04:18:15;;;;;;;2.67;1.63;;;4.70;76.90;;;;;;5104632;28;20039;-43
2020/12/27 04:20:41;;;;;;;2.83;1.98;;;4.70;76.90;;;;;;5138572;27;20056;-42
2020/12/27 04:23:07;;;;;;;3.40;1.40;;;4.70;76.90;;;;;;5126870;27;20049;-42
2020/12/27 04:25:33;;;;;;;2.47;1.73;;;4.70;76.90;;;;;;5145079;27;20034;-41
2020/12/27 04:27:59;;;;;;;1.90;1.70;;;4.70;77.00;;;;;;5145417;27;20064;-42
2020/12/27 04:30:25;;;;;;;2.65;1.85;;;4.70;76.90;;;;;;5145340;27;20019;-42
2020/12/27 04:32:51;;;;;;;2.78;1.77;;;4.70;77.00;;;;;;5136045;27;20038;-42
2020/12/27 04:35:17;;;;;;;2.67;2.03;;;4.70;77.00;;;;;;5124201;28;20034;-42
2020/12/27 04:37:44;;;;;;;2.30;1.70;;;4.60;77.60;;;;;;5106731;28;20123;-41
2020/12/27 04:40:10;;;;;;;3.05;1.92;;;4.60;77.00;;;;;;5104132;28;20016;-41
2020/12/27 04:42:36;;;;;;;2.00;1.65;;;4.60;76.90;;;;;;5123409;28;20067;-41
2020/12/27 04:45:03;;;;;;;2.20;1.92;;;4.60;77.00;;;;;;5123929;28;20020;-41
2020/12/27 04:47:30;;;;;;;2.72;1.70;;;4.60;77.00;;;;;;5124449;28;20053;-41
2020/12/27 04:49:56;;;;;;;2.43;1.70;;;4.60;77.00;;;;;;5135026;27;20113;-42
2020/12/27 04:52:22;;;;;;;2.30;1.83;;;4.60;77.00;;;;;;5144907;27;20031;-42
2020/12/27 04:54:49;;;;;;;3.08;1.80;;;4.60;77.00;;;;;;5144382;27;20053;-41
2020/12/27 04:57:17;;;;;;;2.78;1.77;;;4.60;77.10;;;;;;5144695;27;20043;-42
2020/12/27 04:59:46;;;;;;;3.58;2.08;;;4.50;77.00;;;;;;5144624;27;20086;-42
2020/12/27 05:02:13;;;;;;;2.30;1.80;;;4.60;77.10;;;;;;5140975;27;20031;-42
2020/12/27 05:04:39;;;;;;;3.70;2.10;;;4.50;77.10;;;;;;5123759;28;20097;-41
2020/12/27 05:07:05;;;;;;;2.17;1.67;;;4.50;77.10;;;;;;5111385;28;20092;-41
2020/12/27 05:09:31;;;;;;;3.85;2.00;;;4.50;77.10;;;;;;5084840;28;20016;-42
2020/12/27 05:11:58;;;;;;;4.38;1.95;;;4.50;77.10;;;;;;5103213;28;20150;-42
2020/12/27 05:14:25;;;;;;;2.58;1.98;;;4.50;77.00;;;;;;5103197;28;20020;-42
2020/12/27 05:16:54;;;;;;;3.95;2.10;;;4.50;77.00;;;;;;5123891;27;20048;-42
2020/12/27 05:19:21;;;;;;;3.05;1.95;;;4.50;77.10;;;;;;5129682;27;20043;-42
2020/12/27 05:21:47;;;;;;;3.53;2.25;;;4.40;77.00;;;;;;5144123;27;20035;-42
2020/12/27 05:24:14;;;;;;;2.88;2.10;;;4.40;77.00;;;;;;5125563;27;20035;-42
2020/12/27 05:26:41;;;;;;;3.45;2.25;;;4.50;77.10;;;;;;5144136;27;20038;-42
2020/12/27 05:29:08;;;;;;;2.47;2.13;;;4.50;77.20;;;;;;5144113;27;20029;-41
2020/12/27 05:31:36;;;;;;;2.50;1.90;;;4.40;77.10;;;;;;5144098;27;20031;-41
2020/12/27 05:34:03;;;;;;;2.45;2.00;;;4.40;77.20;;;;;;5124970;27;20028;-41
2020/12/27 05:36:30;;;;;;;3.00;1.73;;;4.40;77.10;;;;;;5124008;27;20076;-42
2020/12/27 05:38:57;;;;;;;3.38;2.20;;;4.40;77.10;;;;;;5123580;28;20487;-42
2020/12/27 05:41:30;;;;;;;3.22;2.10;;;4.40;77.10;;;;;;5125539;27;20022;-41
2020/12/27 05:44:02;;;;;;;3.33;2.20;;;4.40;77.10;;;;;;5123244;28;20023;-42
2020/12/27 05:46:32;;;;;;;3.85;2.28;;;4.40;77.10;;;;;;5123125;28;20130;-42
2020/12/27 05:48:58;;;;;;;2.58;2.03;;;4.40;77.20;;;;;;5125934;27;20024;-42
2020/12/27 05:51:25;;;;;;;2.70;1.83;;;4.40;77.10;;;;;;5125209;28;20061;-41
2020/12/27 05:53:53;;;;;;;2.80;2.08;;;4.30;77.80;;;;;;5143752;27;20027;-42
2020/12/27 05:56:22;;;;;;;3.25;2.40;;;4.30;77.10;;;;;;5143533;27;20066;-44
2020/12/27 05:58:48;;;;;;;4.05;2.50;;;4.40;77.20;;;;;;5125413;28;20023;-44
2020/12/27 06:01:20;;;;;;;3.80;2.53;;;4.30;77.20;;;;;;5143704;28;20223;-44
2020/12/27 06:04:00;;;;;;;3.10;2.20;;;4.30;77.10;;;;;;5108572;28;20093;-43
2020/12/27 06:07:00;;;;;;;3.38;1.95;;;4.30;77.20;;;;;;5115896;28;20028;-43
2020/12/27 06:09:46;;;;;;;3.25;2.28;;;4.30;77.20;;;;;;5102874;28;20032;-43
2020/12/27 06:12:13;;;;;;;2.78;2.03;;;4.30;77.20;;;;;;5095154;28;20062;-43
2020/12/27 06:14:42;;;;;;;6.10;2.47;;;4.30;77.20;;;;;;5102482;28;20028;-43
2020/12/27 06:17:15;;;;;;;3.20;2.20;;;4.30;77.30;;;;;;5084297;28;20050;-43
2020/12/27 06:19:55;;;;;;;3.42;2.30;;;4.20;77.20;;;;;;5120452;27;20091;-43
2020/12/27 06:22:29;;;;;;;3.95;2.33;;;4.30;77.30;;;;;;5147404;27;20058;-43
2020/12/27 06:24:58;;;;;;;5.13;2.65;;;4.20;77.20;;;;;;5147457;27;20046;-48
2020/12/27 06:27:26;;;;;;;3.70;2.38;;;4.20;77.20;;;;;;5147594;27;20105;-43
2020/12/27 06:29:59;;;;;;;3.10;2.35;;;4.20;77.30;;;;;;5147577;27;20023;-43
2020/12/27 06:32:27;;;;;;;5.03;2.55;;;4.20;78.00;;;;;;5124822;28;20464;-41
2020/12/27 06:34:53;;;;;;;3.72;2.58;;;4.20;77.30;;;;;;5108663;28;20038;-41
2020/12/27 06:37:19;;;;;;;4.57;2.70;;;4.20;77.30;;;;;;5112122;28;20038;-42
2020/12/27 06:39:46;;;;;;;3.10;2.40;;;4.10;77.20;;;;;;5106456;28;20017;-41
2020/12/27 06:42:16;;;;;;;3.13;2.27;;;4.10;77.30;;;;;;5106147;28;20032;-41
2020/12/27 06:44:47;;;;;;;3.67;2.20;;;4.10;77.30;;;;;;5087976;28;20035;-41
2020/12/27 06:47:14;;;;;;;3.72;2.47;;;4.10;77.30;;;;;;5106076;28;20063;-41
2020/12/27 06:49:40;;;;;;;2.95;2.22;;;4.10;77.30;;;;;;5099255;28;20023;-41
2020/12/27 06:52:25;;;;;;;4.15;2.22;;;4.10;77.30;;;;;;5126617;28;20139;-41
2020/12/27 06:54:52;;;;;;;3.10;2.50;;;4.10;78.10;;;;;;5126532;28;20032;-41
2020/12/27 06:57:44;;;;;;;3.40;2.58;;;4.10;77.30;;;;;;5126067;28;20063;-42
2020/12/27 07:00:20;;;;;;;4.15;2.55;;;4.10;77.40;;;;;;5126392;28;20020;-41
2020/12/27 07:02:47;;;;;;;5.00;2.70;;;4.10;77.40;;;;;;5126460;28;20022;-43
2020/12/27 07:05:28;;;;;;;3.27;2.40;;;4.10;77.40;;;;;;5107898;28;20024;-43
2020/12/27 07:07:54;;;;;;;3.65;2.55;;;4.10;77.40;;;;;;5088916;28;20031;-43
2020/12/27 07:10:21;;;;;;;3.38;2.45;;;4.10;77.40;;;;;;5105867;28;20032;-43
2020/12/27 07:12:48;;;;;;;4.07;2.55;;;4.00;77.30;;;;;;5096572;28;20024;-43
2020/12/27 07:15:14;;;;;;;4.07;2.50;;;4.00;78.10;;;;;;5105664;28;20032;-43
2020/12/27 07:17:42;;;;;;;3.72;2.50;;;4.00;77.40;;;;;;5104082;28;20036;-43
2020/12/27 07:20:15;;;;;;;4.40;2.65;;;4.00;77.40;;;;;;5130744;27;20035;-43
2020/12/27 07:22:44;;;;;;;4.10;2.88;;;4.00;77.50;;;;;;5128906;27;20051;-43
2020/12/27 07:25:14;;;;;;;5.28;2.58;;;4.00;77.40;;;;;;5146473;27;20590;-43
2020/12/27 07:27:40;;;;;;;2.80;2.15;;;4.00;77.50;;;;;;5127687;27;20035;-43
2020/12/27 07:30:07;;;;;;;6.18;3.13;;;4.00;77.40;;;;;;5143434;27;20027;-45
2020/12/27 07:32:53;;;;;;;2.43;1.97;;;4.00;77.40;;;;;;5125337;28;20037;-43
2020/12/27 07:35:22;;;;;;;2.95;2.47;;;4.00;77.50;;;;;;5125482;28;20403;-43
2020/12/27 07:37:58;;;;;;;4.95;2.88;;;4.00;77.50;;;;;;5117172;27;20039;-43
2020/12/27 07:40:24;;;;;;;4.63;2.47;;;3.90;77.50;;;;;;5108890;28;20083;-43
2020/12/27 07:42:50;;;;;;;3.90;2.88;;;3.90;77.50;;;;;;5090121;28;20044;-43
2020/12/27 07:45:16;;;;;;;4.50;2.80;;;3.90;77.50;;;;;;5125499;28;20019;-43
2020/12/27 07:47:43;;;;;;;4.28;2.63;;;3.90;78.20;;;;;;5107022;28;20066;-43
2020/12/27 07:50:13;;;;;;;5.50;3.30;;;3.90;77.50;;;;;;5138374;27;20028;-44
2020/12/27 07:52:56;;;;;;;3.30;2.55;;;3.90;77.50;;;;;;5140156;27;20063;-43
2020/12/27 07:55:30;;;;;;;4.35;2.75;;;3.90;77.50;;;;;;5106875;28;20019;-43
2020/12/27 07:57:58;;;;;;;4.13;2.92;;;3.90;77.60;;;;;;5125038;28;20046;-43
2020/12/27 08:00:25;;;;;;;3.80;2.88;;;3.90;77.50;;;;;;5125241;28;20031;-43
2020/12/27 08:02:51;;;;;;;;;;;3.90;77.60;;;;;;5107511;28;20024;-43
2020/12/27 08:05:18;;;;;;;4.13;2.58;;;3.90;77.60;;;;;;5125268;28;19908;-44
2020/12/27 08:07:44;;;;;;;4.45;2.67;;;3.90;77.60;;;;;;5088857;28;20032;-43
2020/12/27 08:10:20;;;;;;;6.22;3.33;;;3.90;77.60;;;;;;5104714;28;20024;-43
2020/12/27 08:12:59;;;;;;;4.18;2.90;;;3.80;77.60;;;;;;5104653;28;20027;-43
2020/12/27 08:15:30;;;;;;;4.25;3.05;;;3.80;77.60;;;;;;5104570;28;20024;-43
2020/12/27 08:17:58;;;;;;;5.90;3.13;;;3.80;77.60;;;;;;5104145;28;20061;-43
2020/12/27 08:20:24;;;;;;;4.28;3.03;;;3.80;77.60;;;;;;5100971;28;20034;-43
2020/12/27 08:23:04;;;;;;;6.37;3.03;;;3.80;77.60;;;;;;5124735;28;20055;-43
2020/12/27 08:25:31;;;;;;;6.28;3.10;;;3.80;77.60;;;;;;5124725;28;20028;-43
2020/12/27 08:27:59;;;;;;;5.05;3.17;;;3.80;77.60;;;;;;5105940;28;20028;-43
2020/12/27 08:30:26;;;;;;;4.93;3.08;;;3.80;77.60;;;;;;5124715;28;20031;-43
2020/12/27 08:33:09;;;;;;;5.45;3.25;;;3.80;77.60;;;;;;5106255;28;20033;-43
2020/12/27 08:35:36;;;;;;;5.22;3.25;;;3.80;77.70;;;;;;5124450;28;20032;-42
2020/12/27 08:38:27;;;;;;;6.03;3.47;;;3.80;77.70;;;;;;5103990;28;20051;-43
2020/12/27 08:40:59;;;;;;;5.68;3.10;;;3.70;77.60;;;;;;5097782;28;20722;-43
2020/12/27 08:43:44;;;;;;;4.47;3.10;;;3.70;77.60;;;;;;5123456;28;20049;-43
2020/12/27 08:46:11;;;;;;;4.43;3.10;;;3.70;77.60;;;;;;5123424;28;20016;-43
2020/12/27 08:48:46;;;;;;;;;;;3.70;77.70;;;;;;5106536;28;20019;-43
2020/12/27 08:51:13;;;;;;;4.95;2.90;;;3.70;77.80;;;;;;5103562;28;19908;-43
2020/12/27 08:53:43;;;;;;;5.30;2.97;;;3.70;77.70;;;;;;5103874;28;20031;-43
2020/12/27 08:56:10;;;;;;;4.32;3.17;;;3.70;77.70;;;;;;5085504;28;20032;-43
2020/12/27 08:58:36;;;;;;;3.65;2.60;;;3.70;77.70;;;;;;5102318;28;20042;-43
2020/12/27 09:01:03;;;;;;;4.45;3.15;;;3.70;77.70;;;;;;5103638;28;20047;-43
2020/12/27 09:03:29;;;;;;;3.13;2.72;;;3.70;77.80;;;;;;5117859;28;20096;-43
2020/12/27 09:05:55;;;;;;;4.85;3.25;;;3.60;77.70;;;;;;5121202;28;20031;-43
2020/12/27 09:08:21;;;;;;;5.97;3.33;;;3.70;77.80;;;;;;5101977;28;20028;-43
2020/12/27 09:10:48;;;;;;;5.35;3.50;;;3.70;77.90;;;;;;5103504;28;20035;-43
2020/12/27 09:13:14;;;;;;;4.25;2.92;;;3.60;78.00;;;;;;5102288;28;20028;-43
2020/12/27 09:15:47;;;;;;;4.68;3.10;;;3.60;77.70;;;;;;5103440;28;20016;-43
2020/12/27 09:18:17;;;;;;;4.63;3.28;;;3.60;77.70;;;;;;5103104;28;20040;-44
2020/12/27 09:20:44;;;;;;;5.35;3.30;;;3.60;77.80;;;;;;5138535;27;20031;-43
2020/12/27 09:23:17;;;;;;;8.40;3.83;;;3.60;77.80;;;;;;5144158;27;20058;-42
2020/12/27 09:25:44;;;;;;;5.40;3.50;;;3.60;77.80;;;;;;5144349;27;20087;-43
2020/12/27 09:28:23;;;;;;;5.13;3.40;;;3.60;77.90;;;;;;5144034;27;20054;-43
2020/12/27 09:31:05;;;;;;;6.05;3.63;;;3.60;77.90;;;;;;5144088;27;20024;-43
2020/12/27 09:33:36;;;;;;;6.07;3.53;;;3.60;77.90;;;;;;5129322;27;20484;-43
2020/12/27 09:36:04;;;;;;;4.75;3.53;;;3.60;77.90;;;;;;5119905;28;20020;-43
2020/12/27 09:38:33;;;;;;;4.93;3.28;;;3.60;77.90;;;;;;5116258;27;20024;-42
2020/12/27 09:41:15;;;;;;;5.40;3.72;;;3.60;77.90;;;;;;5123347;28;20785;-42
2020/12/27 09:43:58;;;;;;;5.80;3.80;;;3.60;77.90;;;;;;5105237;28;20059;-43
2020/12/27 09:46:58;;;;;;;7.15;4.05;;;3.50;77.90;;;;;;5123219;28;20027;-43
2020/12/27 09:49:26;;;;;;;5.18;3.47;;;3.60;78.00;;;;;;5038928;28;20620;-43
2020/12/27 09:52:07;;;;;;;6.70;3.55;;;3.50;77.90;;;;;;5039571;28;20044;-43
2020/12/27 09:54:37;;;;;;;5.47;3.63;;;3.50;77.90;;;;;;5039827;28;20102;-42
2020/12/27 09:57:29;;;;;;;6.43;3.85;;;3.50;77.90;;;;;;5023314;28;20069;-42
2020/12/27 09:59:55;;;;;;;5.28;3.47;;;3.50;77.90;;;;;;5036870;28;20093;-42
2020/12/27 10:02:22;;;;;;;6.00;3.72;;;3.50;78.00;;;;;;5035093;28;20105;-42
2020/12/27 10:04:48;;;;;;;5.03;2.78;;;3.50;78.00;;;;;;5020247;28;20632;-42
2020/12/27 10:07:14;;;;;;;5.43;3.90;;;3.50;77.90;;;;;;5033075;28;20097;-42
2020/12/27 10:09:40;;;;;;;5.50;3.80;;;3.50;78.00;;;;;;5039557;28;20021;-42
2020/12/27 10:12:07;;;;;;;5.13;3.40;;;3.50;78.00;;;;;;5039571;28;20785;-42
2020/12/27 10:14:33;;;;;;;7.07;3.92;;;3.50;78.70;;;;;;5039821;28;20042;-42
2020/12/27 10:17:02;;;;;;;5.15;3.70;;;3.50;78.00;;;;;;5039552;28;20072;-42
2020/12/27 10:19:29;;;;;;;5.20;3.70;;;3.50;78.00;;;;;;5039487;28;20033;-42
2020/12/27 10:21:55;;;;;;;5.63;3.58;;;3.40;77.90;;;;;;5039500;28;20046;-42
2020/12/27 10:24:26;;;;;;;5.95;3.40;;;3.50;78.00;;;;;;5055027;28;20091;-42
2020/12/27 10:26:52;;;;;;;4.40;3.55;;;3.40;78.00;;;;;;5102433;28;20020;-42
2020/12/27 10:29:19;;;;;;;5.73;3.67;;;3.40;78.00;;;;;;5102325;28;20035;-42
2020/12/27 10:31:55;;;;;;;5.63;3.70;;;3.40;78.00;;;;;;5102727;28;20950;-42
2020/12/27 10:34:21;;;;;;;7.25;4.18;;;3.40;78.00;;;;;;5082252;28;20109;-42
2020/12/27 10:36:48;;;;;;;4.47;3.13;;;3.40;78.10;;;;;;5091650;28;20099;-42
2020/12/27 10:39:15;;;;;;;6.40;4.20;;;3.40;78.10;;;;;;5102119;28;20051;-42
2020/12/27 10:41:41;;;;;;;6.97;3.80;;;3.40;78.10;;;;;;5084201;28;20050;-42
2020/12/27 10:44:07;;;;;;;5.70;3.90;;;3.40;78.10;;;;;;5102446;28;20047;-42
2020/12/27 10:46:34;;;;;;;5.68;3.60;;;3.40;78.10;;;;;;5102227;28;20054;-42
2020/12/27 10:49:00;;;;;;;7.30;4.25;;;3.40;78.10;;;;;;5104971;28;20054;-42
2020/12/27 10:51:26;;;;;;;6.68;4.13;;;3.40;78.10;;;;;;5122705;28;20048;-42
2020/12/27 10:53:52;;;;;;;6.00;3.25;;;3.40;78.10;;;;;;5122659;28;20045;-42
2020/12/27 10:56:19;;;;;;;6.40;3.70;;;3.30;78.10;;;;;;5122634;28;20496;-42
2020/12/27 10:58:45;;;;;;;6.47;3.95;;;3.30;78.10;;;;;;5122759;28;20091;-42
2020/12/27 11:01:11;;;;;;;6.00;4.07;;;3.40;78.10;;;;;;5122284;28;20024;-42
2020/12/27 11:03:37;;;;;;;5.90;3.97;;;3.30;78.10;;;;;;5105759;28;20024;-42
2020/12/27 11:06:03;;;;;;;5.75;3.75;;;3.30;78.10;;;;;;5099363;28;20028;-42
2020/12/27 11:08:30;;;;;;;7.60;4.05;;;3.30;78.20;;;;;;5085560;28;20024;-42
2020/12/27 11:10:57;;;;;;;5.20;3.65;;;3.30;78.20;;;;;;5085477;28;20059;-42
2020/12/27 11:13:23;;;;;;;6.18;3.72;;;3.30;78.90;;;;;;5085251;28;20028;-42
2020/12/27 11:15:49;;;;;;;6.90;3.80;;;3.30;78.10;;;;;;5104235;28;20027;-42
2020/12/27 11:18:15;;;;;;;7.45;4.00;;;3.30;78.20;;;;;;5126028;28;20035;-42
2020/12/27 11:20:42;;;;;;;7.40;4.10;;;3.30;78.20;;;;;;5108545;28;20045;-42
2020/12/27 11:23:08;;;;;;;6.72;4.32;;;3.30;78.20;;;;;;5123045;28;20069;-42
2020/12/27 11:25:34;;;;;;;7.10;4.00;;;3.30;78.20;;;;;;5125920;28;20134;-42
2020/12/27 11:28:00;;;;;;;4.95;4.07;;;3.30;78.20;;;;;;5107563;28;20038;-42
2020/12/27 11:30:27;;;;;;;7.43;4.50;;;3.30;78.30;;;;;;5125668;28;20020;-42
2020/12/27 11:32:53;;;;;;;6.97;3.78;;;3.30;78.30;;;;;;5129074;27;20036;-42
2020/12/27 11:35:19;;;;;;;7.55;4.22;;;3.30;78.30;;;;;;5125846;28;20034;-44
2020/12/27 11:37:45;;;;;;;6.88;4.03;;;3.30;78.30;;;;;;5107596;28;20560;-42
2020/12/27 11:40:11;;;;;;;5.13;4.03;;;3.20;78.20;;;;;;5111173;28;20076;-42
2020/12/27 11:42:39;;;;;;;8.18;4.60;;;3.20;78.20;;;;;;5125383;28;20028;-42
2020/12/27 11:45:05;;;;;;;6.55;3.72;;;3.20;78.30;;;;;;5128275;27;20023;-42
2020/12/27 11:47:31;;;;;;;6.85;4.30;;;3.20;78.20;;;;;;5107209;28;20488;-42
2020/12/27 11:49:57;;;;;;;5.60;4.15;;;3.20;78.20;;;;;;5136472;27;20054;-42
2020/12/27 11:52:26;;;;;;;5.72;4.10;;;3.20;78.20;;;;;;5145691;27;20455;-42
2020/12/27 11:54:52;;;;;;;5.60;3.78;;;3.20;78.20;;;;;;5145747;27;20076;-43
2020/12/27 11:57:19;;;;;;;5.83;3.97;;;3.20;78.20;;;;;;5145936;27;20042;-42
2020/12/27 11:59:45;;;;;;;6.43;4.03;;;3.20;78.20;;;;;;5145673;27;20343;-42
2020/12/27 12:02:11;;;;;;;8.25;4.15;;;3.20;78.30;;;;;;5142378;27;20039;-42
2020/12/27 12:04:37;;;;;;;7.97;4.05;;;3.20;78.20;;;;;;5125243;28;20426;-42
2020/12/27 12:07:04;;;;;;;6.13;4.05;;;3.20;78.30;;;;;;5112974;28;20032;-42
2020/12/27 12:09:30;;;;;;;5.65;3.97;;;3.20;78.30;;;;;;5086479;28;20027;-42
2020/12/27 12:11:56;;;;;;;6.07;3.92;;;3.20;78.30;;;;;;5104242;28;20059;-42
2020/12/27 12:14:23;;;;;;;6.95;4.18;;;3.10;78.30;;;;;;5104539;28;20020;-42
2020/12/27 12:16:49;;;;;;;6.17;4.20;;;3.20;78.40;;;;;;5104385;28;20028;-42
2020/12/27 12:19:15;;;;;;;6.13;3.92;;;3.10;78.30;;;;;;5091408;28;20271;-42
2020/12/27 12:21:41;;;;;;;5.80;4.20;;;3.10;78.30;;;;;;5124288;28;20073;-42
2020/12/27 12:24:07;;;;;;;5.93;3.85;;;3.10;78.20;;;;;;5124756;28;20035;-42
2020/12/27 12:26:36;;;;;;;6.13;4.13;;;3.10;78.30;;;;;;5124824;28;20026;-42
2020/12/27 12:29:02;;;;;;;6.78;4.28;;;3.10;78.30;;;;;;5106964;28;20019;-42
2020/12/27 12:31:28;;;;;;;8.43;4.63;;;3.10;78.30;;;;;;5124333;28;20024;-42
2020/12/27 12:33:54;;;;;;;6.30;4.15;;;3.10;78.30;;;;;;5106092;28;20099;-42
2020/12/27 12:36:24;;;;;;;5.70;4.15;;;3.10;78.40;;;;;;5118243;28;20042;-42
2020/12/27 12:38:51;;;;;;;7.10;4.05;;;3.10;78.30;;;;;;5069294;28;20049;-42
2020/12/27 12:41:23;;;;;;;7.65;4.47;;;3.10;78.40;;;;;;5085603;28;20049;-42
2020/12/27 12:43:49;;;;;;;8.02;4.38;;;3.10;78.30;;;;;;5090375;28;20773;-42
2020/12/27 12:46:15;;;;;;;6.20;3.88;;;3.10;78.40;;;;;;5124372;28;20054;-42
2020/12/27 12:48:41;;;;;;;6.88;4.38;;;3.10;78.40;;;;;;5124684;27;20032;-42
2020/12/27 12:51:08;;;;;;;5.80;4.00;;;3.10;78.40;;;;;;5143397;27;20106;-42
2020/12/27 12:53:34;;;;;;;7.38;3.80;;;3.10;79.10;;;;;;5124120;28;20034;-42
2020/12/27 12:56:00;;;;;;;6.22;4.25;;;3.10;78.40;;;;;;5124130;28;20032;-42
2020/12/27 12:58:26;;;;;;;7.03;4.05;;;3.00;78.30;;;;;;5123965;28;20031;-42
2020/12/27 13:00:52;;;;;;;6.65;4.10;;;3.00;78.30;;;;;;5123705;28;20100;-42
2020/12/27 13:03:19;;;;;;;7.85;4.65;;;3.00;78.40;;;;;;5123997;28;20028;-42